createdAt,value
2022-11-05T00:02:00.257Z,0.97
2022-11-05T00:04:20.072Z,1.05
2022-11-05T00:06:40.149Z,0.90
2022-11-05T00:09:00.355Z,0.70
2022-11-05T00:11:02.173Z,0.90
2022-11-05T00:13:22.479Z,0.88
2022-11-05T00:15:53.359Z,0.70
2022-11-05T00:17:54.761Z,0.90
2022-11-05T00:19:56.132Z,0.70
2022-11-05T00:22:16.099Z,0.88
2022-11-05T00:24:36.192Z,0.70
2022-11-05T00:26:37.730Z,0.87
2022-11-05T00:28:40.950Z,0.80
2022-11-05T00:30:42.390Z,1.00
2022-11-05T00:32:44.599Z,0.90
2022-11-05T00:34:46.121Z,1.33
2022-11-05T00:36:47.481Z,1.00
2022-11-05T00:38:48.889Z,1.00
2022-11-05T00:40:50.349Z,0.90
2022-11-05T00:43:10.363Z,1.00
2022-11-05T00:45:12.017Z,0.80
2022-11-05T00:47:32.272Z,0.90
2022-11-05T00:49:36.052Z,0.70
2022-11-05T00:51:37.402Z,0.80
2022-11-05T00:53:38.816Z,0.75
2022-11-05T00:55:41.916Z,0.90
2022-11-05T00:57:43.382Z,0.73
2022-11-05T00:59:44.803Z,0.60
2022-11-05T01:01:46.472Z,0.90
2022-11-05T01:03:51.649Z,1.10
2022-11-05T01:05:54.940Z,0.75
2022-11-05T01:07:59.964Z,1.00
2022-11-05T01:10:01.480Z,0.90
2022-11-05T01:12:03.378Z,0.80
2022-11-05T01:14:10.186Z,0.65
2022-11-05T01:16:12.158Z,0.60
2022-11-05T01:18:13.790Z,0.95
2022-11-05T01:20:15.459Z,0.68
2022-11-05T01:22:17.138Z,0.80
2022-11-05T01:24:18.751Z,0.60
2022-11-05T01:26:20.409Z,0.77
2022-11-05T01:28:22.528Z,0.90
2022-11-05T01:30:24.502Z,1.38
2022-11-05T01:32:26.074Z,1.83
2022-11-05T01:34:27.602Z,1.15
2022-11-05T01:36:30.270Z,1.10
2022-11-05T01:38:34.714Z,0.90
2022-11-05T01:40:36.412Z,0.70
2022-11-05T01:42:37.916Z,0.65
2022-11-05T01:44:54.228Z,0.52
2022-11-05T01:46:56.377Z,0.80
2022-11-05T01:49:03.609Z,0.70
2022-11-05T01:51:08.519Z,0.60
2022-11-05T01:53:10.408Z,0.60
2022-11-05T01:55:13.378Z,0.60
2022-11-05T01:57:14.874Z,0.80
2022-11-05T01:59:18.533Z,0.65
2022-11-05T02:01:20.298Z,0.80
2022-11-05T02:03:22.672Z,0.68
2022-11-05T02:05:24.608Z,0.80
2022-11-05T02:07:29.788Z,0.70
2022-11-05T02:09:33.820Z,0.60
2022-11-05T02:11:35.349Z,0.80
2022-11-05T02:13:36.780Z,0.50
2022-11-05T02:15:53.030Z,0.65
2022-11-05T02:18:00.568Z,0.65
2022-11-05T02:20:11.821Z,0.70
2022-11-05T02:22:18.975Z,0.70
2022-11-05T02:24:20.420Z,0.70
2022-11-05T02:27:00.381Z,0.70
2022-11-05T02:29:21.698Z,0.60
2022-11-05T02:31:29.096Z,0.60
2022-11-05T02:33:36.576Z,0.60
2022-11-05T02:35:44.282Z,0.65
2022-11-05T02:38:04.656Z,0.60
2022-11-05T02:40:23.214Z,0.70
2022-11-05T02:42:38.937Z,0.50
2022-11-05T02:44:43.189Z,0.50
2022-11-05T02:46:47.369Z,0.50
2022-11-05T02:48:54.701Z,0.43
2022-11-05T02:50:59.869Z,0.40
2022-11-05T02:53:07.483Z,0.50
2022-11-05T02:55:27.839Z,0.60
2022-11-05T02:57:29.782Z,0.50
2022-11-05T02:59:32.595Z,0.50
2022-11-05T03:01:35.486Z,0.40
2022-11-05T03:03:43.048Z,0.60
2022-11-05T03:05:51.190Z,0.50
2022-11-05T03:07:56.325Z,0.70
2022-11-05T03:10:09.342Z,0.50
2022-11-05T03:12:23.909Z,0.40
2022-11-05T03:14:40.905Z,0.43
2022-11-05T03:16:43.454Z,0.43
2022-11-05T03:18:49.454Z,0.50
2022-11-05T03:21:01.244Z,0.43
2022-11-05T03:23:02.814Z,0.45
2022-11-05T03:31:16.779Z,0.40
2022-11-05T03:33:33.531Z,0.40
2022-11-05T03:35:38.791Z,0.50
2022-11-05T03:37:41.748Z,0.60
2022-11-05T03:39:45.646Z,0.43
2022-11-05T03:41:49.333Z,0.38
2022-11-05T03:43:54.747Z,0.43
2022-11-05T03:45:59.656Z,0.70
2022-11-05T03:48:01.892Z,0.40
2022-11-05T03:50:04.600Z,0.50
2022-11-05T03:52:09.469Z,1.48
2022-11-05T03:54:11.039Z,0.70
2022-11-05T03:56:19.611Z,0.95
2022-11-05T03:58:24.719Z,0.90
2022-11-05T04:00:29.131Z,0.95
2022-11-05T04:02:31.444Z,0.77
2022-11-05T04:04:33.147Z,0.80
2022-11-05T04:06:53.802Z,1.20
2022-11-05T04:09:14.362Z,1.20
2022-11-05T04:11:34.296Z,1.08
2022-11-05T04:13:35.886Z,1.70
2022-11-05T04:15:57.038Z,1.50
2022-11-05T04:17:59.688Z,1.20
2022-11-05T04:20:24.953Z,1.30
2022-11-05T04:22:46.173Z,1.30
2022-11-05T04:24:47.614Z,1.00
2022-11-05T04:26:49.192Z,1.38
2022-11-05T04:29:09.448Z,1.13
2022-11-05T04:31:10.967Z,1.20
2022-11-05T04:33:14.411Z,1.33
2022-11-05T04:35:16.225Z,1.42
2022-11-05T04:37:17.762Z,1.20
2022-11-05T04:39:21.988Z,1.30
2022-11-05T04:41:23.482Z,1.15
2022-11-05T04:43:24.913Z,1.30
2022-11-05T04:45:27.846Z,1.38
2022-11-05T04:47:29.333Z,1.60
2022-11-05T04:49:30.764Z,1.23
2022-11-05T04:51:32.247Z,1.30
2022-11-05T04:53:33.698Z,1.10
2022-11-05T04:55:35.057Z,1.13
2022-11-05T04:57:36.632Z,1.60
2022-11-05T04:59:38.324Z,1.70
2022-11-05T05:01:39.995Z,1.40
2022-11-05T05:03:41.825Z,1.67
2022-11-05T05:05:43.311Z,2.00
2022-11-05T05:07:44.778Z,1.30
2022-11-05T05:09:46.596Z,1.80
2022-11-05T05:11:48.080Z,2.15
2022-11-05T05:13:49.794Z,2.30
2022-11-05T05:15:51.542Z,2.10
2022-11-05T05:17:53.595Z,1.77
2022-11-05T05:20:13.987Z,1.90
2022-11-05T05:22:15.507Z,4.03
2022-11-05T05:24:18.768Z,3.00
2022-11-05T05:26:20.199Z,2.42
2022-11-05T05:28:21.617Z,2.40
2022-11-05T05:30:23.242Z,3.33
2022-11-05T05:32:24.903Z,2.90
2022-11-05T05:34:26.655Z,2.90
2022-11-05T05:36:28.319Z,3.28
2022-11-05T05:38:29.983Z,3.30
2022-11-05T05:40:31.416Z,3.53
2022-11-05T05:42:33.906Z,3.42
2022-11-05T05:44:38.339Z,3.60
2022-11-05T05:46:39.815Z,3.72
2022-11-05T05:48:43.560Z,3.60
2022-11-05T05:50:44.979Z,4.32
2022-11-05T05:52:46.453Z,4.00
2022-11-05T05:54:48.284Z,4.43
2022-11-05T05:56:49.781Z,4.60
2022-11-05T05:58:51.879Z,4.38
2022-11-05T06:00:53.641Z,4.43
2022-11-05T06:02:55.847Z,4.40
2022-11-05T06:04:57.343Z,5.05
2022-11-05T06:06:58.993Z,4.93
2022-11-05T06:09:00.414Z,5.13
2022-11-05T06:11:02.538Z,5.00
2022-11-05T06:13:04.256Z,4.90
2022-11-05T06:17:24.756Z,5.45
2022-11-05T06:19:26.487Z,5.15
2022-11-05T06:21:30.010Z,5.50
2022-11-05T06:23:32.411Z,6.30
2022-11-05T06:25:38.471Z,5.53
2022-11-05T06:27:42.306Z,5.72
2022-11-05T06:29:43.613Z,6.28
2022-11-05T06:31:45.037Z,6.70
2022-11-05T06:33:47.444Z,6.32
2022-11-05T06:35:48.823Z,7.53
2022-11-05T06:37:53.200Z,7.07
2022-11-05T06:39:57.097Z,9.88
2022-11-05T06:42:26.841Z,10.70
2022-11-05T06:44:19.955Z,7.03
2022-11-05T06:46:21.376Z,7.47
2022-11-05T06:48:36.381Z,7.40
2022-11-05T06:50:46.729Z,7.22
2022-11-05T06:52:58.637Z,8.02
2022-11-05T06:55:00.215Z,7.93
2022-11-05T06:57:02.153Z,7.60
2022-11-05T06:59:04.634Z,7.97
2022-11-05T07:01:10.789Z,7.72
2022-11-05T07:03:13.380Z,8.18
2022-11-05T07:07:31.312Z,8.13
2022-11-05T07:09:35.906Z,7.88
2022-11-05T07:11:38.047Z,7.97
2022-11-05T07:13:40.454Z,7.95
2022-11-05T07:15:43.466Z,8.45
2022-11-05T07:17:45.715Z,8.43
2022-11-05T07:19:47.420Z,8.30
2022-11-05T07:21:55.011Z,8.45
2022-11-05T07:23:57.668Z,8.20
2022-11-05T07:25:59.737Z,9.13
2022-11-05T07:28:02.185Z,8.55
2022-11-05T07:30:04.809Z,9.13
2022-11-05T07:32:06.789Z,9.30
2022-11-05T07:34:10.931Z,8.65
2022-11-05T07:36:15.559Z,9.35
2022-11-05T07:38:17.211Z,9.10
2022-11-05T07:40:19.875Z,9.45
2022-11-05T07:42:21.351Z,9.15
2022-11-05T07:44:23.055Z,8.95
2022-11-05T07:46:25.495Z,8.55
2022-11-05T07:48:27.049Z,8.57
2022-11-05T07:50:29.938Z,8.65
2022-11-05T07:52:32.380Z,8.57
2022-11-05T07:54:34.693Z,8.60
2022-11-05T07:56:36.703Z,8.13
2022-11-05T07:58:44.978Z,8.18
2022-11-05T08:00:47.107Z,8.27
2022-11-05T08:03:03.989Z,8.57
2022-11-05T08:05:13.027Z,8.38
2022-11-05T08:07:14.834Z,7.55
2022-11-05T08:09:16.538Z,7.90
2022-11-05T08:16:24.537Z,7.93
2022-11-05T08:18:33.709Z,8.45
2022-11-05T08:20:35.647Z,8.05
2022-11-05T08:22:37.469Z,8.45
2022-11-05T08:24:41.361Z,8.35
2022-11-05T08:26:45.463Z,9.02
2022-11-05T08:28:51.166Z,8.35
2022-11-05T08:30:54.168Z,7.82
2022-11-05T08:33:06.039Z,8.25
2022-11-05T08:35:07.975Z,7.50
2022-11-05T08:37:09.554Z,7.47
2022-11-05T08:39:16.997Z,7.82
2022-11-05T08:41:19.124Z,7.80
2022-11-05T08:43:20.796Z,7.70
2022-11-05T08:45:22.856Z,7.50
2022-11-05T08:47:25.238Z,7.18
2022-11-05T08:49:26.905Z,7.47
2022-11-05T08:51:29.000Z,7.28
2022-11-05T08:53:34.086Z,7.45
2022-11-05T08:55:42.256Z,7.60
2022-11-05T08:57:46.082Z,7.75
2022-11-05T08:59:47.624Z,7.18
2022-11-05T09:01:50.692Z,7.15
2022-11-05T09:03:52.897Z,7.50
2022-11-05T09:05:54.379Z,6.90
2022-11-05T09:08:01.001Z,6.82
2022-11-05T09:10:06.665Z,6.63
2022-11-05T09:12:13.005Z,6.18
2022-11-05T09:14:14.767Z,6.43
2022-11-05T09:16:25.847Z,6.38
2022-11-05T09:18:27.929Z,6.18
2022-11-05T09:20:29.560Z,6.13
2022-11-05T09:22:37.862Z,5.80
2022-11-05T09:24:43.171Z,5.55
2022-11-05T09:26:45.082Z,5.10
2022-11-05T09:28:46.609Z,5.22
2022-11-05T09:30:50.162Z,5.45
2022-11-05T09:32:52.264Z,5.40
2022-11-05T09:34:53.777Z,4.95
2022-11-05T09:36:56.687Z,4.93
2022-11-05T09:38:58.182Z,5.22
2022-11-05T09:41:00.912Z,4.80
2022-11-05T09:43:03.192Z,4.72
2022-11-05T09:45:10.189Z,4.47
2022-11-05T09:47:14.567Z,4.57
2022-11-05T09:49:25.804Z,4.63
2022-11-05T09:51:56.675Z,4.60
2022-11-05T09:56:03.568Z,5.13
2022-11-05T09:58:16.786Z,4.38
2022-11-05T10:00:18.373Z,4.88
2022-11-05T10:02:27.822Z,5.95
2022-11-05T10:04:31.578Z,5.38
2022-11-05T10:06:35.408Z,6.53
2022-11-05T10:08:49.422Z,5.18
2022-11-05T10:11:04.294Z,5.07
2022-11-05T10:13:28.535Z,6.50
2022-11-05T10:15:50.531Z,5.38
2022-11-05T10:17:56.555Z,4.93
2022-11-05T10:20:23.923Z,5.25
2022-11-05T10:24:45.198Z,4.60
2022-11-05T10:26:47.874Z,4.75
2022-11-05T10:28:50.896Z,4.00
2022-11-05T10:31:03.878Z,3.40
2022-11-05T10:33:15.680Z,2.85
2022-11-05T10:35:31.640Z,3.10
2022-11-05T10:37:40.881Z,3.17
2022-11-05T10:39:42.651Z,3.20
2022-11-05T10:42:00.490Z,3.58
2022-11-05T10:44:14.749Z,3.20
2022-11-05T10:46:25.298Z,4.10
2022-11-05T10:48:56.039Z,3.70
2022-11-05T10:51:07.015Z,3.10
2022-11-05T10:53:35.837Z,3.13
2022-11-05T10:56:21.394Z,3.20
2022-11-05T11:01:28.074Z,3.38
2022-11-05T11:03:42.760Z,3.55
2022-11-05T11:05:47.339Z,3.92
2022-11-05T11:10:38.197Z,3.72
2022-11-05T11:12:42.902Z,3.40
2022-11-05T11:17:30.330Z,3.80
2022-11-05T11:19:37.593Z,3.38
2022-11-05T11:21:49.694Z,3.75
2022-11-05T11:24:08.602Z,3.53
2022-11-05T11:31:08.751Z,2.70
2022-11-05T11:33:25.601Z,3.42
2022-11-05T11:35:51.561Z,3.20
2022-11-05T11:56:14.341Z,3.50
2022-11-05T11:58:21.349Z,4.38
2022-11-05T12:00:30.417Z,3.45
2022-11-05T12:05:31.399Z,2.72
2022-11-05T12:07:42.530Z,3.50
2022-11-05T12:09:56.793Z,2.80
2022-11-05T12:14:41.184Z,2.90
2022-11-05T12:16:55.565Z,3.45
2022-11-05T12:19:07.164Z,3.05
2022-11-05T12:24:06.590Z,3.90
2022-11-05T12:26:34.552Z,2.60
2022-11-05T12:29:12.331Z,3.40
2022-11-05T12:40:02.108Z,3.50
2022-11-05T13:01:44.371Z,2.60
2022-11-05T13:06:53.886Z,2.83
2022-11-05T13:11:42.434Z,2.13
2022-11-05T13:32:49.848Z,1.90
2022-11-05T13:49:31.255Z,2.40
2022-11-05T14:04:20.143Z,1.42
2022-11-05T14:06:30.243Z,1.45
2022-11-05T14:46:05.675Z,2.28
2022-11-05T15:01:25.382Z,1.83
2022-11-05T15:03:47.120Z,1.85
2022-11-05T15:30:27.270Z,1.80
2022-11-05T15:32:33.369Z,2.30
2022-11-05T15:35:14.912Z,2.95
2022-11-05T15:42:16.944Z,2.75
2022-11-05T15:44:31.990Z,2.63
2022-11-05T15:48:56.361Z,2.63
2022-11-05T15:50:57.971Z,2.20
2022-11-05T15:53:35.946Z,2.28
2022-11-05T15:55:25.321Z,2.22
2022-11-05T15:57:31.448Z,2.30
2022-11-05T16:02:33.941Z,2.30
2022-11-05T16:04:36.948Z,2.50
2022-11-05T16:06:43.165Z,2.42
2022-11-05T16:08:49.911Z,2.47
2022-11-05T16:10:56.522Z,2.47
2022-11-05T16:12:58.146Z,2.50
2022-11-05T16:15:17.038Z,2.20
2022-11-05T16:17:20.456Z,2.60
2022-11-05T16:19:41.338Z,2.38
2022-11-05T16:22:39.762Z,2.60
2022-11-05T16:24:41.476Z,2.50
2022-11-05T16:27:03.316Z,2.88
2022-11-05T16:29:26.650Z,4.63
2022-11-05T16:31:32.559Z,2.90
2022-11-05T16:33:46.087Z,2.47
2022-11-05T16:35:51.122Z,3.00
2022-11-05T16:37:52.781Z,3.03
2022-11-05T16:39:57.136Z,2.97
2022-11-05T16:42:00.038Z,2.90
2022-11-05T16:44:03.336Z,3.75
2022-11-05T16:46:04.878Z,3.33
2022-11-05T16:48:06.950Z,3.80
2022-11-05T16:52:36.352Z,4.20
2022-11-05T16:54:38.139Z,4.22
2022-11-05T16:58:57.758Z,4.00
2022-11-05T17:01:04.679Z,4.22
2022-11-05T17:03:09.159Z,4.65
2022-11-05T17:05:16.426Z,5.95
2022-11-05T17:07:18.128Z,7.43
2022-11-05T17:09:20.526Z,7.05
2022-11-05T17:11:22.602Z,5.47
2022-11-05T17:13:24.544Z,4.68
2022-11-05T17:15:31.221Z,5.72
2022-11-05T17:17:36.142Z,5.97
2022-11-05T17:19:42.747Z,4.80
2022-11-05T17:21:44.878Z,3.38
2022-11-05T17:23:50.718Z,3.38
2022-11-05T17:26:01.829Z,3.53
2022-11-05T17:28:03.959Z,3.60
2022-11-05T17:30:05.877Z,3.25
2022-11-05T17:32:07.994Z,3.72
2022-11-05T17:34:10.457Z,3.85
2022-11-05T17:36:14.187Z,4.75
2022-11-05T17:38:16.737Z,4.50
2022-11-05T17:40:22.670Z,4.50
2022-11-05T17:42:25.750Z,4.25
2022-11-05T17:44:27.638Z,5.70
2022-11-05T17:46:29.300Z,4.85
2022-11-05T17:48:30.981Z,5.05
2022-11-05T17:50:32.362Z,5.20
2022-11-05T17:52:36.235Z,5.43
2022-11-05T17:57:57.040Z,5.22
2022-11-05T18:00:06.027Z,5.40
2022-11-05T18:02:12.646Z,5.07
2022-11-05T18:09:00.557Z,5.20
2022-11-05T18:11:02.907Z,5.75
2022-11-05T18:13:04.989Z,5.93
2022-11-05T18:15:10.330Z,5.53
2022-11-05T18:20:15.706Z,6.35
2022-11-05T18:22:21.032Z,6.53
2022-11-05T18:24:23.412Z,6.05
2022-11-05T18:26:32.828Z,5.80
2022-11-05T18:37:57.344Z,6.35
2022-11-05T18:39:59.588Z,6.00
2022-11-05T18:42:04.225Z,6.30
2022-11-05T18:44:05.915Z,6.60
2022-11-05T18:46:08.231Z,6.93
2022-11-05T18:48:16.160Z,6.40
2022-11-05T18:50:17.852Z,6.43
2022-11-05T18:52:22.423Z,6.78
2022-11-05T18:54:24.179Z,6.90
2022-11-05T18:56:26.082Z,6.75
2022-11-05T18:58:28.039Z,7.00
2022-11-05T19:00:29.541Z,6.95
2022-11-05T19:02:31.469Z,6.57
2022-11-05T19:04:34.908Z,7.13
2022-11-05T19:06:36.718Z,6.97
2022-11-05T19:08:38.116Z,7.68
2022-11-05T19:10:41.581Z,7.18
2022-11-05T19:12:45.242Z,6.97
2022-11-05T19:14:47.006Z,7.22
2022-11-05T19:16:48.671Z,7.30
2022-11-05T19:18:50.274Z,7.20
2022-11-05T19:24:05.425Z,7.00
2022-11-05T19:34:24.398Z,6.85
2022-11-05T19:38:39.446Z,7.25
2022-11-05T19:40:43.523Z,7.50
2022-11-05T19:42:53.367Z,7.90
2022-11-05T19:54:30.270Z,7.65
2022-11-05T20:00:12.978Z,7.57
2022-11-05T20:05:46.391Z,7.32
2022-11-05T20:08:30.747Z,6.50
2022-11-05T20:13:23.517Z,7.65
2022-11-05T20:18:23.080Z,7.35
2022-11-05T20:20:46.376Z,6.90
2022-11-05T20:28:13.421Z,7.60
2022-11-05T20:32:48.407Z,7.22
2022-11-05T20:38:06.760Z,7.82
2022-11-05T20:49:20.075Z,8.70
2022-11-05T20:51:25.325Z,8.55
2022-11-05T20:53:27.260Z,8.80
2022-11-05T20:55:28.700Z,9.52
2022-11-05T20:57:33.489Z,8.77
2022-11-05T20:59:37.789Z,9.20
2022-11-05T21:01:47.309Z,9.45
2022-11-05T21:03:48.981Z,9.10
2022-11-05T21:05:52.209Z,9.55
2022-11-05T21:07:53.652Z,9.32
2022-11-05T21:09:55.160Z,9.57
2022-11-05T21:12:11.449Z,9.00
2022-11-05T21:14:12.806Z,8.45
2022-11-05T21:16:18.002Z,8.13
2022-11-05T21:18:21.379Z,7.97
2022-11-05T21:20:22.867Z,7.80
2022-11-05T21:22:24.429Z,7.72
2022-11-05T21:24:25.999Z,7.10
2022-11-05T21:26:28.180Z,6.90
2022-11-05T21:28:29.548Z,6.53
2022-11-05T21:30:31.102Z,6.32
2022-11-05T21:32:32.541Z,6.22
2022-11-05T21:34:33.868Z,6.45
2022-11-05T21:36:35.659Z,6.40
2022-11-05T21:38:37.183Z,7.35
2022-11-05T21:40:38.550Z,7.65
2022-11-05T21:42:40.013Z,7.57
2022-11-05T21:44:41.420Z,7.45
2022-11-05T21:46:42.840Z,7.53
2022-11-05T21:48:44.205Z,7.85
2022-11-05T21:51:08.749Z,8.15
2022-11-05T21:53:32.627Z,7.97
2022-11-05T21:55:52.561Z,8.48
2022-11-05T21:58:12.799Z,8.50
2022-11-05T22:00:14.374Z,8.65
2022-11-05T22:02:18.081Z,9.00
2022-11-05T22:04:19.538Z,8.63
2022-11-05T22:06:20.966Z,8.70
2022-11-05T22:08:22.676Z,9.55
2022-11-05T22:10:24.064Z,9.32
2022-11-05T22:12:25.592Z,8.68
2022-11-05T22:14:27.043Z,9.23
2022-11-05T22:16:28.511Z,9.25
2022-11-05T22:18:30.579Z,9.88
2022-11-05T22:20:32.084Z,9.52
2022-11-05T22:22:34.267Z,9.07
2022-11-05T22:24:36.072Z,9.50
2022-11-05T22:26:38.340Z,8.35
2022-11-05T22:28:39.797Z,8.93
2022-11-05T22:30:41.189Z,9.27
2022-11-05T22:32:42.734Z,9.18
2022-11-05T22:34:44.217Z,8.85
2022-11-05T22:36:47.953Z,8.38
2022-11-05T22:38:49.500Z,8.48
2022-11-05T22:40:50.975Z,8.95
2022-11-05T22:42:52.484Z,8.43
2022-11-05T22:44:54.456Z,8.90
2022-11-05T22:46:56.291Z,8.65
2022-11-05T22:48:58.478Z,7.90
2022-11-05T22:51:06.575Z,7.60
2022-11-05T22:53:08.686Z,7.43
2022-11-05T22:55:13.486Z,8.82
2022-11-05T22:57:24.206Z,7.40
2022-11-05T22:59:26.043Z,8.10
2022-11-05T23:03:54.028Z,7.85
2022-11-05T23:06:05.279Z,7.85
2022-11-05T23:08:26.786Z,14.90
2022-11-05T23:16:04.517Z,7.82
2022-11-05T23:18:35.514Z,7.25
2022-11-05T23:23:32.337Z,7.30
2022-11-05T23:25:34.730Z,7.38
2022-11-05T23:27:54.562Z,8.23
2022-11-05T23:30:00.118Z,8.43
2022-11-05T23:32:23.588Z,8.02
2022-11-05T23:39:39.669Z,9.52
2022-11-05T23:42:15.593Z,9.55
2022-11-05T23:46:57.003Z,9.45
2022-11-05T23:48:58.905Z,8.90
2022-11-05T23:51:01.190Z,8.77
2022-11-05T23:53:02.554Z,9.00
2022-11-05T23:55:04.348Z,8.80
2022-11-05T23:57:05.780Z,9.30
2022-11-05T23:59:07.271Z,9.75
